Time;durP1;ratioP1;P1;durP2;ratioP2;P2;SDS_P1;SDS_P2;PMS_P1;PMS_P2;Temp;Humidity;BMP_temperature;BMP_pressure;BME280_temperature;BME280_humidity;BME280_pressure;Samples;Min_cycle;Max_cycle;Signal;HPM_P1;HPM_P2
2022/12/31 00:03:00;;;;;;;48.13;25.90;;;;;;;4.90;76.31;100006.16;2000397;89;31110;-62
2022/12/31 00:06:29;;;;;;;46.95;27.52;;;;;;;4.94;76.36;100003.82;2000014;89;34157;-62
2022/12/31 00:09:30;;;;;;;45.30;26.73;;;;;;;4.98;76.28;100006.80;2000350;89;29653;-62
2022/12/31 00:12:32;;;;;;;50.00;27.55;;;;;;;5.01;76.32;100010.22;2000146;89;27768;-62
2022/12/31 00:15:34;;;;;;;44.98;23.95;;;;;;;5.06;76.36;100003.91;2000170;89;29168;-62
2022/12/31 00:18:36;;;;;;;36.80;20.65;;;;;;;5.10;76.40;100007.73;2000019;89;32352;-63
2022/12/31 00:21:39;;;;;;;35.70;19.23;;;;;;;5.14;76.40;100000.53;2000248;89;32981;-62
2022/12/31 00:24:41;;;;;;;37.35;20.60;;;;;;;5.19;76.53;99988.45;2000604;89;30286;-63
2022/12/31 00:27:43;;;;;;;34.15;18.35;;;;;;;5.23;76.46;99986.08;1971246;89;27670;-63
2022/12/31 00:30:45;;;;;;;30.55;17.32;;;;;;;5.27;76.44;99989.05;1966316;89;29842;-63
2022/12/31 00:33:47;;;;;;;32.45;17.92;;;;;;;5.32;76.51;99981.34;1960921;90;31808;-63
2022/12/31 00:36:49;;;;;;;30.12;17.35;;;;;;;5.38;76.52;99988.23;1960916;90;34291;-62
2022/12/31 00:39:51;;;;;;;28.05;15.08;;;;;;;5.44;76.46;99987.19;1961043;90;30237;-62
2022/12/31 00:42:56;;;;;;;26.35;15.58;;;;;;;5.49;76.51;99989.20;1961127;90;27763;-62
2022/12/31 00:45:58;;;;;;;;;;;;;;;5.54;76.51;99995.24;1963344;90;29613;-62
2022/12/31 00:49:00;;;;;;;23.67;13.35;;;;;;;5.61;76.56;99994.57;1961275;90;31051;-62
2022/12/31 00:52:02;;;;;;;26.27;13.45;;;;;;;5.66;76.59;100003.27;1961161;90;33795;-62
2022/12/31 00:55:05;;;;;;;23.07;13.25;;;;;;;5.73;76.58;99998.61;1961352;89;30183;-62
2022/12/31 00:58:07;;;;;;;19.98;13.28;;;;;;;5.81;76.56;100004.98;1961287;90;27653;-62
2022/12/31 01:01:16;;;;;;;20.15;12.37;;;;;;;5.87;76.57;100008.30;1961176;90;29913;-62
2022/12/31 01:04:20;;;;;;;22.15;11.85;;;;;;;5.95;76.48;100006.69;1961169;90;31978;-62
2022/12/31 01:07:22;;;;;;;19.60;11.57;;;;;;;6.03;76.47;100010.44;1961082;90;34244;-62
2022/12/31 01:13:48;;;;;;;19.12;11.50;;;;;;;6.16;76.41;100014.39;1961208;90;27681;-62
2022/12/31 01:16:53;;;;;;;16.67;11.20;;;;;;;6.23;76.30;100018.58;1961185;90;28741;-62
2022/12/31 01:19:55;;;;;;;12.75;8.23;;;;;;;6.32;76.28;100011.17;1961195;90;31478;-62
2022/12/31 01:22:58;;;;;;;18.80;11.73;;;;;;;6.38;76.23;100002.97;1961099;89;33002;-62
2022/12/31 01:26:02;;;;;;;17.23;11.33;;;;;;;6.44;76.15;100007.20;1961187;90;30789;-62
2022/12/31 01:29:09;;;;;;;16.85;11.43;;;;;;;6.51;76.14;100000.73;1961455;90;27717;-62
2022/12/31 01:32:11;;;;;;;18.95;11.10;;;;;;;6.58;76.08;99992.05;1966193;90;28845;-62
2022/12/31 01:35:13;;;;;;;15.93;10.23;;;;;;;6.66;76.03;99993.94;1971465;90;32352;-62
2022/12/31 01:38:15;;;;;;;15.65;9.90;;;;;;;6.73;75.97;99987.47;1971418;90;33879;-62
2022/12/31 01:41:21;;;;;;;14.93;10.13;;;;;;;6.81;75.79;99987.16;1971431;90;30497;-61
2022/12/31 01:44:28;;;;;;;15.20;10.40;;;;;;;6.89;75.87;99990.38;1971854;90;27718;-62
2022/12/31 01:47:37;;;;;;;16.97;10.43;;;;;;;6.96;75.82;100004.31;1971463;90;29583;-61
2022/12/31 01:50:40;;;;;;;14.65;10.28;;;;;;;7.04;75.78;100006.67;1974796;88;31105;-62
2022/12/31 01:53:43;;;;;;;13.58;8.85;;;;;;;7.10;75.67;99999.33;1971533;90;33296;-62
2022/12/31 01:56:47;;;;;;;15.40;9.55;;;;;;;7.15;75.63;100007.98;1971891;90;29645;-62
2022/12/31 01:59:50;;;;;;;11.93;9.13;;;;;;;7.22;75.61;100025.06;1971526;90;27730;-62
2022/12/31 02:02:52;;;;;;;9.58;8.20;;;;;;;7.27;75.56;100029.28;1971705;90;29832;-62
2022/12/31 02:05:59;;;;;;;16.62;9.30;;;;;;;7.34;75.52;100038.37;1971399;90;31137;-62
2022/12/31 02:09:01;;;;;;;12.13;9.00;;;;;;;7.39;75.44;100037.24;1970704;90;32978;-62
2022/12/31 02:12:07;;;;;;;13.95;9.48;;;;;;;7.45;75.43;100045.45;1971179;90;30488;-61
2022/12/31 02:15:09;;;;;;;16.05;9.85;;;;;;;7.49;75.36;100040.85;1971786;89;27734;-61
2022/12/31 02:18:32;;;;;;;11.15;8.35;;;;;;;7.54;75.34;100043.73;1951916;90;29929;-62
2022/12/31 02:21:45;;;;;;;12.37;8.73;;;;;;;7.59;75.32;100044.41;1971787;88;31206;-61
2022/12/31 02:25:09;;;;;;;15.53;8.90;;;;;;;7.64;75.18;100049.55;1971699;90;32967;-62
2022/12/31 02:28:45;;;;;;;13.93;9.55;;;;;;;7.69;75.16;100048.05;1971672;90;30056;-61
2022/12/31 02:31:55;;;;;;;12.88;8.43;;;;;;;7.71;75.12;100045.70;1971392;90;27803;-61
2022/12/31 02:35:05;;;;;;;12.37;8.58;;;;;;;7.76;75.06;100041.50;1971668;90;28783;-62
2022/12/31 02:38:15;;;;;;;13.85;9.03;;;;;;;7.79;75.00;100042.72;1971421;90;31859;-62
2022/12/31 02:44:41;;;;;;;12.63;8.70;;;;;;;7.86;74.99;100035.31;1971421;90;30805;-61
2022/12/31 02:47:51;;;;;;;12.82;7.78;;;;;;;7.90;74.91;100039.11;1971740;90;28310;-61
2022/12/31 02:51:01;;;;;;;11.48;8.23;;;;;;;7.92;74.89;100049.73;1977211;88;28693;-61
2022/12/31 02:54:20;;;;;;;11.33;7.92;;;;;;;7.97;74.88;100063.72;1971993;90;31068;-61
2022/12/31 02:57:41;;;;;;;8.80;6.83;;;;;;;8.00;74.85;100065.41;1971798;90;34114;-61
2022/12/31 03:07:29;;;;;;;11.05;7.17;;;;;;;8.06;74.80;100047.34;1971009;90;29925;-60
2022/12/31 03:10:31;;;;;;;9.10;6.58;;;;;;;8.08;74.80;100046.41;1970868;90;31088;-61
2022/12/31 03:13:33;;;;;;;9.50;6.22;;;;;;;8.09;74.79;100051.66;1971057;90;33398;-62
2022/12/31 03:16:35;;;;;;;11.33;6.90;;;;;;;8.09;74.82;100046.33;1970824;90;31067;-61
2022/12/31 03:22:57;;;;;;;9.88;5.90;;;;;;;8.11;74.95;100061.80;1971316;90;28706;-61
2022/12/31 03:25:59;;;;;;;8.60;6.33;;;;;;;8.13;75.03;100067.95;1971145;90;31565;-62
2022/12/31 03:29:01;;;;;;;6.83;5.25;;;;;;;8.16;75.06;100071.82;1978339;88;34220;-62
2022/12/31 03:32:03;;;;;;;8.30;6.15;;;;;;;8.18;75.07;100067.73;2002834;88;29662;-61
2022/12/31 03:35:07;;;;;;;7.58;5.42;;;;;;;8.18;75.07;100062.41;1997746;89;27740;-61
2022/12/31 03:38:09;;;;;;;9.00;5.30;;;;;;;8.19;75.12;100069.00;1997953;89;28685;-61
2022/12/31 03:41:12;;;;;;;8.75;5.40;;;;;;;8.19;75.12;100074.33;1994440;89;32213;-61
2022/12/31 03:44:14;;;;;;;8.30;5.65;;;;;;;8.18;75.13;100073.96;1992484;89;34212;-61
2022/12/31 03:47:16;;;;;;;6.95;5.05;;;;;;;8.19;75.18;100086.34;1992512;89;30851;-61
2022/12/31 03:50:19;;;;;;;6.05;4.67;;;;;;;8.21;75.25;100096.48;1992882;89;27595;-62
2022/12/31 03:53:21;;;;;;;6.10;4.45;;;;;;;8.23;75.25;100103.56;1992613;89;29287;-62
2022/12/31 03:56:23;;;;;;;7.40;5.62;;;;;;;8.26;75.33;100106.10;1992407;89;32136;-62
2022/12/31 03:59:25;;;;;;;9.35;4.90;;;;;;;8.28;75.34;100082.89;1992622;89;32989;-62
2022/12/31 04:02:27;;;;;;;6.70;5.03;;;;;;;8.30;75.32;100091.70;1992333;89;30856;-62
2022/12/31 04:05:28;;;;;;;5.85;4.62;;;;;;;8.32;75.36;100090.69;1993118;89;27760;-62
2022/12/31 04:08:30;;;;;;;6.53;4.67;;;;;;;8.33;75.33;100079.56;1992646;89;29835;-62
2022/12/31 04:11:33;;;;;;;5.90;4.33;;;;;;;8.36;75.40;100084.28;1992564;89;32121;-61
2022/12/31 04:14:38;;;;;;;5.65;4.62;;;;;;;8.39;75.42;100085.94;1992545;89;33976;-61
2022/12/31 04:17:39;;;;;;;5.97;4.85;;;;;;;8.43;75.42;100084.87;1976465;89;29651;-61
2022/12/31 04:20:42;;;;;;;6.10;4.83;;;;;;;8.45;75.40;100075.45;1986689;89;27684;-61
2022/12/31 04:23:44;;;;;;;5.10;4.33;;;;;;;8.47;75.34;100074.47;1959497;90;30801;-62
2022/12/31 04:26:46;;;;;;;6.72;4.90;;;;;;;8.48;75.30;100070.02;1959675;90;31139;-61
2022/12/31 04:29:49;;;;;;;8.18;4.97;;;;;;;8.48;75.26;100060.67;1959809;90;32972;-61
2022/12/31 04:32:51;;;;;;;9.55;4.80;;;;;;;8.47;75.24;100054.45;1962162;90;29692;-62
2022/12/31 04:35:53;;;;;;;7.70;4.58;;;;;;;8.47;75.24;100059.78;1967417;90;27880;-62
2022/12/31 04:38:55;;;;;;;6.65;4.92;;;;;;;8.47;75.27;100045.11;1967153;90;29155;-62
2022/12/31 04:41:58;;;;;;;5.53;4.42;;;;;;;8.48;75.24;100048.20;1967124;90;31116;-62
2022/12/31 04:45:00;;;;;;;6.95;5.35;;;;;;;8.47;75.24;100059.78;1966834;90;33806;-62
2022/12/31 04:48:02;;;;;;;5.45;4.40;;;;;;;8.45;75.21;100063.44;1966860;90;30480;-62
2022/12/31 04:51:06;;;;;;;4.70;4.22;;;;;;;8.43;75.29;100069.34;1976622;89;27713;-62
2022/12/31 04:54:11;;;;;;;6.17;4.57;;;;;;;8.43;75.40;100077.35;2000703;89;28711;-61
2022/12/31 04:57:13;;;;;;;5.80;4.40;;;;;;;8.44;75.51;100079.94;2000199;89;31768;-62
2022/12/31 05:00:16;;;;;;;12.30;4.70;;;;;;;8.47;75.63;100073.14;2000208;89;33015;-64
2022/12/31 05:03:19;;;;;;;4.72;4.05;;;;;;;8.49;75.61;100069.08;2000233;89;29844;-63
2022/12/31 05:06:23;;;;;;;5.60;4.17;;;;;;;8.50;75.61;100069.03;2000152;89;28219;-62
2022/12/31 05:09:27;;;;;;;6.65;4.53;;;;;;;8.49;75.52;100067.30;2000258;89;28856;-63
2022/12/31 05:12:28;;;;;;;5.45;4.05;;;;;;;8.45;75.46;100062.99;2000068;89;31345;-61
2022/12/31 05:15:31;;;;;;;8.78;3.92;;;;;;;8.42;75.43;100062.27;2000291;89;33390;-62
2022/12/31 05:18:34;;;;;;;4.60;3.90;;;;;;;8.37;75.43;100053.11;2000063;89;31084;-61
2022/12/31 05:21:36;;;;;;;5.50;4.33;;;;;;;8.29;75.43;100052.11;1963826;90;27677;-62
2022/12/31 05:24:38;;;;;;;4.42;3.75;;;;;;;8.23;75.47;100060.86;1967108;90;28720;-61
2022/12/31 05:27:41;;;;;;;7.35;4.42;;;;;;;8.17;75.65;100053.55;1967070;90;31063;-61
2022/12/31 05:30:46;;;;;;;5.28;3.87;;;;;;;8.15;75.77;100059.86;1994104;89;33518;-62
2022/12/31 05:33:49;;;;;;;4.67;3.25;;;;;;;8.13;75.87;100058.61;2020853;86;29624;-61
2022/12/31 05:36:52;;;;;;;6.67;4.20;;;;;;;8.11;75.94;100067.14;1992803;89;27764;-61
2022/12/31 05:39:57;;;;;;;5.72;3.87;;;;;;;8.10;76.01;100068.07;1992677;89;27750;-62
2022/12/31 05:42:59;;;;;;;5.75;3.80;;;;;;;8.07;75.96;100070.87;1992482;89;31152;-62
2022/12/31 05:46:05;;;;;;;6.25;4.20;;;;;;;8.03;76.02;100078.14;1992652;89;33006;-61
2022/12/31 05:49:11;;;;;;;4.35;3.75;;;;;;;8.01;76.15;100073.34;1992936;89;29638;-60
2022/12/31 05:52:13;;;;;;;5.15;3.50;;;;;;;8.01;76.34;100075.16;1992618;89;27751;-60
2022/12/31 05:55:16;;;;;;;4.70;3.70;;;;;;;8.02;76.54;100067.55;1992752;89;28672;-61
2022/12/31 05:58:18;;;;;;;10.63;7.45;;;;;;;8.02;76.61;100054.21;1992593;89;31769;-61
2022/12/31 06:01:21;;;;;;;19.67;17.30;;;;;;;8.01;76.62;100071.16;1992753;89;33014;-61
2022/12/31 06:04:24;;;;;;;22.77;16.87;;;;;;;8.00;76.71;100080.94;1992472;89;29738;-63
2022/12/31 06:07:27;;;;;;;26.12;21.65;;;;;;;7.99;76.89;100083.69;1992473;89;27734;-62
2022/12/31 06:10:30;;;;;;;19.70;15.00;;;;;;;7.97;76.90;100070.39;1992530;89;29370;-62
2022/12/31 06:13:34;;;;;;;26.75;19.07;;;;;;;7.98;77.04;100069.45;1967103;89;28311;-62
2022/12/31 06:16:36;;;;;;;15.18;10.50;;;;;;;7.99;77.23;100071.20;1959575;90;33041;-62
2022/12/31 06:19:40;;;;;;;9.00;6.17;;;;;;;7.99;77.18;100071.68;1959552;90;30515;-61
2022/12/31 06:22:42;;;;;;;8.80;7.05;;;;;;;7.99;77.33;100069.02;1959903;90;28132;-62
2022/12/31 06:25:45;;;;;;;15.72;10.63;;;;;;;7.98;77.43;100076.12;1960015;90;28693;-62
2022/12/31 06:28:47;;;;;;;14.55;8.95;;;;;;;7.99;77.51;100077.86;1959651;90;31940;-62
2022/12/31 06:31:49;;;;;;;17.92;10.90;;;;;;;8.02;77.47;100085.74;1960022;90;34101;-62
2022/12/31 06:34:50;;;;;;;20.23;12.53;;;;;;;8.02;77.54;100081.74;1965374;90;30794;-63
2022/12/31 06:37:52;;;;;;;29.77;17.12;;;;;;;8.03;77.58;100094.16;1967690;90;27629;-63
2022/12/31 06:40:54;;;;;;;28.15;16.45;;;;;;;8.04;77.74;100097.67;1966902;90;28650;-62
2022/12/31 06:43:57;;;;;;;25.37;15.40;;;;;;;8.06;77.85;100102.48;1998336;89;32210;-63
2022/12/31 06:46:59;;;;;;;40.52;24.30;;;;;;;8.09;77.87;100103.69;2000265;89;33051;-62
2022/12/31 06:50:00;;;;;;;18.87;12.20;;;;;;;8.10;77.89;100097.42;2000282;89;29467;-62
2022/12/31 06:53:03;;;;;;;12.75;8.68;;;;;;;8.11;78.08;100095.64;2000192;89;28334;-62
2022/12/31 06:56:20;;;;;;;5.45;3.90;;;;;;;8.12;77.99;100090.67;2000470;89;29167;-62
2022/12/31 06:59:28;;;;;;;5.55;3.65;;;;;;;8.10;78.15;100089.90;2000302;89;31048;-61
2022/12/31 07:02:57;;;;;;;7.12;4.15;;;;;;;8.09;78.20;100083.68;2000305;89;32969;-61
2022/12/31 07:06:16;;;;;;;8.55;6.50;;;;;;;8.08;78.34;100089.09;1979317;89;30662;-61
2022/12/31 07:09:52;;;;;;;13.55;9.25;;;;;;;8.08;78.42;100098.43;1978700;89;28034;-61
2022/12/31 07:13:09;;;;;;;;;;;;;;;8.08;78.52;100097.95;1981378;89;29916;-62
2022/12/31 07:16:40;;;;;;;7.80;5.28;;;;;;;8.12;78.86;100109.35;1979136;89;31280;-63
2022/12/31 07:20:02;;;;;;;12.05;8.13;;;;;;;8.11;78.86;100115.17;1979379;89;34131;-62
2022/12/31 07:23:06;;;;;;;21.50;12.58;;;;;;;8.16;79.09;100120.30;1978432;89;29823;-62
2022/12/31 07:26:20;;;;;;;12.30;6.93;;;;;;;8.22;79.34;100116.05;1979687;89;27817;-62
2022/12/31 07:29:42;;;;;;;6.65;4.47;;;;;;;8.31;79.41;100118.30;1979125;89;29576;-62
2022/12/31 07:33:04;;;;;;;15.65;8.53;;;;;;;8.41;79.56;100121.45;1979189;89;31943;-62
2022/12/31 07:36:40;;;;;;;7.67;4.87;;;;;;;8.52;79.61;100117.01;1979444;89;34183;-61
2022/12/31 07:39:48;;;;;;;;;;;;;;;8.64;79.71;100117.80;1981873;89;29767;-63
2022/12/31 07:43:14;;;;;;;7.50;5.17;;;;;;;8.78;79.72;100113.62;1989677;89;27649;-61
2022/12/31 07:46:38;;;;;;;11.88;6.58;;;;;;;8.88;79.77;100113.62;1917872;92;29540;-63
2022/12/31 07:49:42;;;;;;;8.83;5.65;;;;;;;9.00;79.71;100119.34;1918206;92;31836;-63
2022/12/31 07:52:45;;;;;;;7.22;4.50;;;;;;;9.12;79.69;100119.64;1917991;92;32988;-63
2022/12/31 07:55:57;;;;;;;6.28;4.53;;;;;;;9.22;79.66;100113.85;1917585;92;30512;-63
2022/12/31 07:59:27;;;;;;;4.85;3.98;;;;;;;9.34;79.62;100112.41;1918201;92;27719;-63
2022/12/31 08:03:12;;;;;;;4.78;3.30;;;;;;;9.45;79.56;100116.77;1917676;92;29407;-63
2022/12/31 08:06:20;;;;;;;5.83;3.40;;;;;;;9.55;79.52;100110.05;1917579;92;32259;-63
2022/12/31 08:09:45;;;;;;;6.83;3.58;;;;;;;9.68;79.40;100127.69;1917659;92;33052;-62
2022/12/31 08:12:49;;;;;;;2.87;2.52;;;;;;;9.79;79.35;100138.35;1916108;91;33902;-62
2022/12/31 08:15:55;;;;;;;5.13;3.70;;;;;;;9.88;79.19;100121.38;1915223;92;27704;-62
2022/12/31 08:18:58;;;;;;;6.10;3.30;;;;;;;9.96;79.10;100123.67;1915476;92;29969;-62
2022/12/31 08:22:57;;;;;;;5.22;3.08;;;;;;;10.06;78.95;100132.55;1921283;90;31151;-62
2022/12/31 08:26:37;;;;;;;4.15;2.83;;;;;;;10.12;78.86;100135.79;1962643;90;33438;-61
2022/12/31 08:30:14;;;;;;;3.80;2.90;;;;;;;10.19;78.73;100141.24;1962914;90;29446;-62
2022/12/31 08:33:28;;;;;;;4.60;2.58;;;;;;;10.30;78.69;100135.34;1965149;88;27741;-64
2022/12/31 08:36:40;;;;;;;4.78;2.67;;;;;;;10.40;78.59;100134.44;1999786;87;28685;-62
2022/12/31 08:40:04;;;;;;;3.17;2.50;;;;;;;10.49;78.44;100135.28;1986397;89;31082;-65
2022/12/31 08:43:34;;;;;;;5.70;2.70;;;;;;;10.60;78.35;100133.84;1975808;89;33552;-66
2022/12/31 08:47:07;;;;;;;3.58;2.70;;;;;;;10.70;78.22;100124.84;1918131;92;29754;-64
2022/12/31 08:50:19;;;;;;;4.17;2.90;;;;;;;10.78;78.03;100130.69;1935404;92;27955;-62
2022/12/31 08:53:22;;;;;;;3.52;2.45;;;;;;;10.83;77.90;100121.05;1936937;91;29376;-62
2022/12/31 08:56:53;;;;;;;3.83;2.10;;;;;;;10.88;77.83;100118.51;1945090;91;31952;-63
2022/12/31 09:00:09;;;;;;;5.65;3.40;;;;;;;10.96;77.82;100119.92;1946317;91;34179;-62
2022/12/31 09:03:34;;;;;;;3.95;2.62;;;;;;;11.05;77.78;100120.75;1947012;90;29656;-62
2022/12/31 09:06:59;;;;;;;3.58;2.58;;;;;;;11.18;77.76;100115.09;1957632;88;28412;-64
2022/12/31 09:10:18;;;;;;;2.52;2.20;;;;;;;11.29;77.72;100107.80;1962178;90;29137;-65
2022/12/31 09:13:51;;;;;;;3.25;2.47;;;;;;;11.42;77.58;100097.26;1965938;89;30600;-65
2022/12/31 09:17:36;;;;;;;5.78;3.42;;;;;;;11.54;77.46;100093.88;1966246;89;33108;-68
2022/12/31 09:20:39;;;;;;;3.17;2.40;;;;;;;11.65;77.24;100097.28;1915381;91;30436;-63
2022/12/31 09:23:42;;;;;;;2.62;2.30;;;;;;;11.76;77.14;100106.06;1882853;93;27824;-63
2022/12/31 09:27:04;;;;;;;3.10;2.45;;;;;;;11.83;76.95;100111.94;1894330;93;28791;-63
2022/12/31 09:30:10;;;;;;;3.55;2.58;;;;;;;11.88;76.68;100111.20;1855174;94;32293;-63
2022/12/31 09:33:17;;;;;;;3.77;2.10;;;;;;;11.93;76.56;100113.12;1894358;93;32987;-61
2022/12/31 09:36:42;;;;;;;5.45;2.77;;;;;;;11.99;76.32;100115.49;1893781;93;29659;-63
2022/12/31 09:39:47;;;;;;;4.30;2.80;;;;;;;12.07;76.56;100114.19;1894672;92;27942;-62
2022/12/31 09:43:15;;;;;;;3.85;2.35;;;;;;;12.15;76.43;100110.09;1910383;91;29504;-62
2022/12/31 09:46:51;;;;;;;2.60;2.27;;;;;;;12.25;76.50;100109.03;1864697;95;30875;-62
2022/12/31 09:50:19;;;;;;;;;;;;;;;12.39;76.47;100114.09;1869859;93;34244;-62
2022/12/31 09:53:53;;;;;;;5.08;2.25;;;;;;;12.51;76.17;100113.80;1889354;92;30009;-63
2022/12/31 09:57:27;;;;;;;4.25;2.42;;;;;;;12.58;75.91;100106.61;1882160;94;27843;-62
2022/12/31 10:00:52;;;;;;;5.90;3.42;;;;;;;12.66;75.99;100108.83;1888180;92;29494;-62
2022/12/31 10:04:21;;;;;;;6.00;3.15;;;;;;;12.78;75.89;100109.05;1882176;94;31073;-62
2022/12/31 10:07:52;;;;;;;4.58;3.02;;;;;;;12.84;75.62;100104.15;1893989;92;33028;-61
2022/12/31 10:11:18;;;;;;;4.08;2.98;;;;;;;12.94;75.65;100117.00;1888846;92;30587;-62
2022/12/31 10:14:44;;;;;;;6.60;2.90;;;;;;;13.04;75.41;100110.95;1887638;93;28509;-61
2022/12/31 10:17:58;;;;;;;4.30;2.80;;;;;;;13.14;75.48;100100.48;1935184;91;29706;-62
2022/12/31 10:21:42;;;;;;;3.77;2.60;;;;;;;13.24;75.40;100084.63;1946790;91;32347;-62
2022/12/31 10:25:04;;;;;;;3.77;2.50;;;;;;;13.32;75.16;100090.36;1934348;92;34227;-62
2022/12/31 10:28:27;;;;;;;3.33;2.17;;;;;;;13.45;74.97;100089.61;1884572;92;31084;-61
2022/12/31 10:31:54;;;;;;;3.35;2.98;;;;;;;13.57;74.97;100076.69;1884964;93;27822;-61
2022/12/31 10:35:41;;;;;;;7.85;2.98;;;;;;;13.70;74.89;100070.02;1879756;93;28728;-62
2022/12/31 10:39:15;;;;;;;5.67;3.10;;;;;;;13.83;74.64;100080.34;1871821;94;31951;-62
2022/12/31 10:42:49;;;;;;;4.53;2.70;;;;;;;14.01;73.75;100070.65;1866795;94;33379;-62
2022/12/31 10:46:21;;;;;;;3.30;1.95;;;;;;;14.01;73.75;100070.65;1801506;98;30676;-62
2022/12/31 10:49:55;;;;;;;2.60;2.40;;;;;;;14.10;73.90;100072.70;1791431;98;27832;-62
2022/12/31 10:53:15;;;;;;;3.67;2.02;;;;;;;14.23;73.94;100062.45;1788509;99;29566;-62
2022/12/31 10:56:56;;;;;;;6.08;2.27;;;;;;;14.35;73.41;100056.67;1788711;99;31806;-62
2022/12/31 11:00:21;;;;;;;4.78;2.25;;;;;;;14.53;73.34;100061.28;1780182;99;34521;-63
2022/12/31 11:03:34;;;;;;;5.20;2.58;;;;;;;14.53;73.34;100061.28;1786069;98;30490;-62
2022/12/31 11:07:07;;;;;;;3.83;2.02;;;;;;;14.65;73.15;100060.87;1844590;96;27701;-62
2022/12/31 11:10:34;;;;;;;3.35;2.22;;;;;;;14.74;72.92;100065.67;1841879;96;29755;-62
2022/12/31 11:14:12;;;;;;;2.30;1.80;;;;;;;14.81;72.50;100073.69;1844095;96;31136;-62
2022/12/31 11:17:37;;;;;;;2.47;2.00;;;;;;;14.82;71.95;100055.19;1844629;96;34219;-61
2022/12/31 11:20:57;;;;;;;3.00;1.87;;;;;;;14.80;71.73;100062.55;1867676;92;29709;-62
2022/12/31 11:24:39;;;;;;;5.22;2.20;;;;;;;14.80;71.78;100059.86;1955184;90;27771;-62
2022/12/31 11:27:49;;;;;;;4.53;2.40;;;;;;;14.82;71.77;100051.14;1970633;90;29203;-61
2022/12/31 11:31:20;;;;;;;4.65;2.50;;;;;;;14.81;71.31;100038.62;1970148;90;31742;-64
2022/12/31 11:34:36;;;;;;;8.58;2.40;;;;;;;14.82;71.47;100044.40;1972563;88;33410;-61
2022/12/31 11:37:51;;;;;;;5.80;2.50;;;;;;;14.73;71.22;100027.55;2003497;88;31015;-60
2022/12/31 11:40:58;;;;;;;5.40;2.67;;;;;;;14.80;71.09;100045.02;1954760;90;27799;-60
2022/12/31 11:44:18;;;;;;;6.58;3.30;;;;;;;14.82;71.04;100030.06;1948452;91;30014;-61
2022/12/31 11:47:45;;;;;;;5.40;2.90;;;;;;;14.81;70.97;100038.62;1968147;90;32534;-62
2022/12/31 11:51:12;;;;;;;5.12;2.70;;;;;;;14.84;71.07;100034.87;1969044;90;33455;-62
2022/12/31 11:54:37;;;;;;;2.17;1.80;;;;;;;14.85;70.77;100027.16;1909006;92;30932;-62
2022/12/31 11:57:40;;;;;;;5.12;2.00;;;;;;;14.86;70.63;100030.23;1910010;92;27838;-61
2022/12/31 12:00:51;;;;;;;2.10;1.70;;;;;;;14.86;70.69;100022.98;1936095;91;29485;-60
2022/12/31 12:03:53;;;;;;;2.20;1.95;;;;;;;14.87;70.40;100024.71;1869568;95;33194;-61
2022/12/31 12:06:55;;;;;;;2.75;1.90;;;;;;;14.89;70.51;100029.52;1868457;95;34197;-61
2022/12/31 12:10:00;;;;;;;4.60;2.67;;;;;;;14.93;70.44;100029.30;1868776;95;30135;-61
2022/12/31 12:13:25;;;;;;;6.15;4.60;;;;;;;14.93;70.44;100029.30;1850790;95;27784;-60
2022/12/31 12:16:28;;;;;;;3.42;2.30;;;;;;;14.96;70.22;100020.48;1869125;95;29803;-61
2022/12/31 12:19:34;;;;;;;4.50;2.27;;;;;;;14.98;70.20;100022.59;1869013;95;31058;-60
2022/12/31 12:22:36;;;;;;;4.12;2.67;;;;;;;15.00;70.02;100027.86;1868937;95;33902;-60
2022/12/31 12:25:41;;;;;;;4.25;2.10;;;;;;;15.01;69.86;100031.81;1850445;95;29673;-61
2022/12/31 12:28:45;;;;;;;3.75;2.52;;;;;;;15.02;69.98;100032.19;1869005;95;27758;-61
2022/12/31 12:32:04;;;;;;;4.03;2.07;;;;;;;15.04;69.91;100046.44;1888751;93;28682;-60
2022/12/31 12:35:20;;;;;;;3.12;2.00;;;;;;;15.06;69.73;100044.11;1904548;90;32054;-61
2022/12/31 12:38:22;;;;;;;5.10;2.27;;;;;;;15.08;69.88;100048.88;1935206;91;32455;-61
2022/12/31 12:41:26;;;;;;;6.00;2.55;;;;;;;15.11;69.73;100038.75;1939860;91;31777;-61
2022/12/31 12:44:29;;;;;;;5.37;2.27;;;;;;;15.15;69.72;100046.12;1915915;92;27747;-61
2022/12/31 12:47:30;;;;;;;5.40;2.37;;;;;;;15.17;69.69;100045.03;1915373;92;29553;-61
2022/12/31 12:50:41;;;;;;;4.37;2.35;;;;;;;15.22;69.70;100046.54;1915377;92;32245;-61
2022/12/31 12:54:18;;;;;;;3.40;2.12;;;;;;;15.26;69.56;100046.70;1915578;92;33358;-61
2022/12/31 12:57:38;;;;;;;4.92;3.00;;;;;;;15.29;69.42;100054.57;1915473;92;30859;-60
2022/12/31 13:01:08;;;;;;;7.95;3.60;;;;;;;15.28;69.26;100042.90;1915573;92;27785;-60
2022/12/31 13:04:29;;;;;;;6.35;4.33;;;;;;;15.29;69.25;100046.48;1915705;92;29842;-60
2022/12/31 13:08:01;;;;;;;6.22;4.25;;;;;;;15.26;69.09;100050.75;1915624;92;31132;-60
2022/12/31 13:11:48;;;;;;;6.80;3.62;;;;;;;15.23;69.05;100054.51;1918395;91;33925;-60
2022/12/31 13:15:01;;;;;;;4.03;3.30;;;;;;;15.21;68.92;100046.16;1946808;91;30466;-60
2022/12/31 13:18:27;;;;;;;4.12;3.08;;;;;;;15.15;68.72;100053.72;1947040;91;28256;-61
2022/12/31 13:21:49;;;;;;;11.20;6.15;;;;;;;14.99;68.73;100044.55;1947294;91;28712;-60
2022/12/31 13:25:22;;;;;;;7.25;4.35;;;;;;;14.99;68.73;100044.55;1946952;91;31963;-60
2022/12/31 13:28:24;;;;;;;8.83;6.92;;;;;;;15.11;68.86;100066.20;1947181;91;33906;-60
2022/12/31 13:31:39;;;;;;;6.47;4.85;;;;;;;15.13;68.93;100060.22;2231452;79;27737;-62
2022/12/31 13:34:43;;;;;;;7.72;5.65;;;;;;;15.08;68.88;100062.38;2181827;81;28196;-61
2022/12/31 13:37:46;;;;;;;10.30;5.43;;;;;;;15.07;69.04;100071.44;2163062;81;29427;-61
2022/12/31 13:41:15;;;;;;;8.63;5.00;;;;;;;15.06;68.86;100080.54;2181910;80;31684;-62
2022/12/31 13:44:49;;;;;;;10.90;6.05;;;;;;;15.04;69.04;100077.46;2180925;80;33442;-61
2022/12/31 13:47:56;;;;;;;6.80;4.22;;;;;;;15.04;69.01;100071.19;2172704;81;29587;-61
2022/12/31 13:51:03;;;;;;;5.60;4.05;;;;;;;15.02;68.88;100080.75;2181284;81;27676;-61
2022/12/31 13:54:39;;;;;;;4.30;3.45;;;;;;;15.02;69.00;100085.27;2162650;81;28885;-61
2022/12/31 13:57:55;;;;;;;7.28;4.45;;;;;;;15.02;68.98;100083.92;2181796;81;31030;-61
2022/12/31 14:01:20;;;;;;;10.65;6.67;;;;;;;15.02;69.00;100086.62;2180163;81;32394;-61
2022/12/31 14:04:29;;;;;;;12.07;7.05;;;;;;;14.99;68.87;100077.39;2181635;81;29113;-61
2022/12/31 14:07:51;;;;;;;7.33;4.80;;;;;;;14.95;68.93;100075.41;2181706;81;27613;-61
2022/12/31 14:11:16;;;;;;;6.28;3.75;;;;;;;14.94;69.01;100064.23;2210596;79;29571;-61
2022/12/31 14:14:41;;;;;;;7.55;4.85;;;;;;;14.91;69.05;100081.14;2139347;83;31436;-61
2022/12/31 14:18:00;;;;;;;6.53;5.35;;;;;;;14.87;69.09;100078.66;2176264;81;33841;-61
2022/12/31 14:21:19;;;;;;;8.33;6.17;;;;;;;14.84;69.07;100080.22;2139266;83;29667;-61
2022/12/31 14:24:44;;;;;;;8.20;5.67;;;;;;;14.81;69.13;100072.34;2176675;81;27717;-61
2022/12/31 14:27:47;;;;;;;16.87;11.25;;;;;;;14.79;69.22;100067.56;2139370;83;28648;-61
2022/12/31 14:30:52;;;;;;;12.13;8.73;;;;;;;14.78;69.28;100075.75;2176076;81;31714;-61
2022/12/31 14:34:14;;;;;;;9.98;8.25;;;;;;;14.76;69.33;100080.38;2139241;83;33702;-61
2022/12/31 14:38:01;;;;;;;8.53;5.22;;;;;;;14.73;69.39;100090.91;2176656;81;28729;-61
2022/12/31 14:41:27;;;;;;;5.35;4.08;;;;;;;14.63;69.47;100071.78;2137216;83;28479;-62
2022/12/31 14:44:43;;;;;;;5.10;4.45;;;;;;;14.69;69.46;100086.70;2024129;87;28712;-61
2022/12/31 14:47:57;;;;;;;8.98;4.12;;;;;;;14.68;69.57;100094.41;1984055;87;31551;-62
2022/12/31 14:51:04;;;;;;;3.70;3.20;;;;;;;14.65;69.43;100086.50;2016439;88;32817;-61
2022/12/31 14:54:27;;;;;;;8.55;4.67;;;;;;;14.62;69.57;100084.89;2016699;88;28709;-61
2022/12/31 14:57:40;;;;;;;6.60;3.50;;;;;;;14.59;69.66;100085.09;2014999;88;27290;-61
2022/12/31 15:00:55;;;;;;;9.13;4.40;;;;;;;14.57;69.76;100082.98;2016535;88;28656;-61
2022/12/31 15:03:58;;;;;;;10.00;6.87;;;;;;;14.56;69.81;100079.45;2016300;88;31258;-62
2022/12/31 15:07:09;;;;;;;10.13;5.50;;;;;;;14.55;69.82;100087.16;2016285;88;32981;-62
2022/12/31 15:10:34;;;;;;;5.75;4.55;;;;;;;14.53;69.84;100086.89;2007078;86;29113;-62
2022/12/31 15:14:00;;;;;;;8.18;4.67;;;;;;;14.51;69.95;100086.13;2005384;88;27807;-61
2022/12/31 15:17:21;;;;;;;;;;;;;;;14.50;70.01;100092.49;1996521;88;28637;-61